METAR EVRA 271850Z 19007KT 9999 OVC005 04/03 Q1008 R18/290195 NOSIG =

Latvia vACC - Contacts

Contact Latvia vACC Management

Administration:

Martins Lezdins - vACC LV Director - This email address is being protected from spambots. You need JavaScript enabled to view it.

Janeks Tompolskis - vACC LV Training Director / Website - This email address is being protected from spambots. You need JavaScript enabled to view it.


Events / Request ATC coverage: This email address is being protected from spambots. You need JavaScript enabled to view it.

Nils Gravelsins - vACC LV Event Coordinator - This email address is being protected from spambots. You need JavaScript enabled to view it.

Kaspars Fogels - vACC LV Event Coordinator - This email address is being protected from spambots. You need JavaScript enabled to view it.


ATC Training Instructors:

Arturs Akimovs - vACC LV Training Instructor - This email address is being protected from spambots. You need JavaScript enabled to view it.

Nils Gravelsins - vACC LV Event Coordinator - This email address is being protected from spambots. You need JavaScript enabled to view it. 

Controllers Online

PositionControllerOnline
No controllers currently online

Booked ATC Today

* Times are UTC

The time is now

UTC: 

Local: 

Latvia vACC on twitter